Time;durP1;ratioP1;P1;durP2;ratioP2;P2;SDS_P1;SDS_P2;PMS_P1;PMS_P2;Temp;Humidity;BMP_temperature;BMP_pressure;BME280_temperature;BME280_humidity;BME280_pressure;Samples;Min_cycle;Max_cycle;Signal;HPM_P1;HPM_P2
2022/06/03 00:00:10;;;;;;;0.00;0.00;;;;;;;;;;1736039;28;20210;-72
2022/06/03 00:01:10;;;;;;;0.00;0.00;;;;;;;;;;1733317;28;20303;-72
2022/06/03 00:02:09;;;;;;;0.00;0.00;;;;;;;;;;1738232;28;20318;-72
2022/06/03 00:03:11;;;;;;;0.00;0.00;;;;;;;;;;1758783;28;20497;-72
2022/06/03 00:04:13;;;;;;;0.00;0.00;;;;;;;;;;1759102;28;20193;-72
2022/06/03 00:05:31;;;;;;;0.00;0.00;;;;;;;;;;1757369;28;20278;-72
2022/06/03 00:06:30;;;;;;;0.00;0.00;;;;;;;;;;1738765;28;20277;-72
2022/06/03 00:07:30;;;;;;;0.00;0.00;;;;;;;;;;1759838;28;20591;-72
2022/06/03 00:08:41;;;;;;;0.00;0.00;;;;;;;;;;1759742;28;20185;-72
2022/06/03 00:09:44;;;;;;;0.00;0.00;;;;;;;;;;1732601;28;20293;-72
2022/06/03 00:10:50;;;;;;;0.00;0.00;;;;;;;;;;1746901;28;20233;-73
2022/06/03 00:11:49;;;;;;;0.00;0.00;;;;;;;;;;1758750;28;20197;-72
2022/06/03 00:12:52;;;;;;;0.00;0.00;;;;;;;;;;1759866;28;20862;-72
2022/06/03 00:14:01;;;;;;;0.00;0.00;;;;;;;;;;1759864;28;20296;-72
2022/06/03 00:15:06;;;;;;;0.00;0.00;;;;;;;;;;1760177;28;20473;-72
2022/06/03 00:16:02;;;;;;;0.00;0.00;;;;;;;;;;1757834;27;20380;-72
2022/06/03 00:16:59;;;;;;;0.00;0.00;;;;;;;;;;1759405;28;20196;-72
2022/06/03 00:18:03;;;;;;;0.00;0.00;;;;;;;;;;1758843;28;20607;-72
2022/06/03 00:19:11;;;;;;;0.00;0.00;;;;;;;;;;1753347;28;20193;-72
2022/06/03 00:20:07;;;;;;;0.00;0.00;;;;;;;;;;1759294;28;20597;-72
2022/06/03 00:21:02;;;;;;;0.00;0.00;;;;;;;;;;1758132;28;20240;-72
2022/06/03 00:21:58;;;;;;;0.00;0.00;;;;;;;;;;1759042;28;20204;-72
2022/06/03 00:22:59;;;;;;;0.00;0.00;;;;;;;;;;1758475;28;20203;-72
2022/06/03 00:24:05;;;;;;;0.00;0.00;;;;;;;;;;1753171;28;20189;-71
2022/06/03 00:25:03;;;;;;;0.00;0.00;;;;;;;;;;1759797;28;20193;-72
2022/06/03 00:26:11;;;;;;;0.00;0.00;;;;;;;;;;1758327;28;20377;-72
2022/06/03 00:27:15;;;;;;;0.00;0.00;;;;;;;;;;1759415;28;20193;-72
2022/06/03 00:28:15;;;;;;;0.00;0.00;;;;;;;;;;1759138;28;20481;-72
2022/06/03 00:29:16;;;;;;;0.00;0.00;;;;;;;;;;1758803;28;20181;-72
2022/06/03 00:30:15;;;;;;;0.00;0.00;;;;;;;;;;1758434;28;20257;-72
2022/06/03 00:31:14;;;;;;;0.00;0.00;;;;;;;;;;1758353;28;20749;-72
2022/06/03 00:32:19;;;;;;;0.00;0.00;;;;;;;;;;1759771;28;20284;-72
2022/06/03 00:33:19;;;;;;;0.00;0.00;;;;;;;;;;1759384;28;20687;-72
2022/06/03 00:34:18;;;;;;;0.00;0.00;;;;;;;;;;1759829;27;20189;-72
2022/06/03 00:35:26;;;;;;;0.00;0.00;;;;;;;;;;1757148;28;20693;-72
2022/06/03 00:36:26;;;;;;;0.00;0.00;;;;;;;;;;1756381;28;20305;-72
2022/06/03 00:37:25;;;;;;;0.00;0.00;;;;;;;;;;1759765;28;20488;-72
2022/06/03 00:38:35;;;;;;;0.00;0.00;;;;;;;;;;1759607;28;20261;-72
2022/06/03 00:39:43;;;;;;;0.00;0.00;;;;;;;;;;1759331;28;21101;-72
2022/06/03 00:40:41;;;;;;;0.00;0.00;;;;;;;;;;1751693;28;20320;-72
2022/06/03 00:41:41;;;;;;;0.00;0.00;;;;;;;;;;1758366;28;20197;-72
2022/06/03 00:42:43;;;;;;;0.00;0.00;;;;;;;;;;1759107;28;20380;-72
2022/06/03 00:43:50;;;;;;;0.00;0.00;;;;;;;;;;1758387;28;20189;-72
2022/06/03 00:44:47;;;;;;;0.00;0.00;;;;;;;;;;1758976;28;20620;-72
2022/06/03 00:45:45;;;;;;;0.00;0.00;;;;;;;;;;1758494;28;20355;-72
2022/06/03 00:46:56;;;;;;;0.00;0.00;;;;;;;;;;1759554;28;20341;-72
2022/06/03 00:47:57;;;;;;;0.00;0.00;;;;;;;;;;1755357;28;20193;-72
2022/06/03 00:49:03;;;;;;;0.00;0.00;;;;;;;;;;1755065;28;20190;-72
2022/06/03 00:50:10;;;;;;;0.00;0.00;;;;;;;;;;1759453;28;21021;-72
2022/06/03 00:51:22;;;;;;;0.00;0.00;;;;;;;;;;1755582;28;20236;-72
2022/06/03 00:52:24;;;;;;;0.00;0.00;;;;;;;;;;1733908;28;20213;-72
2022/06/03 00:53:30;;;;;;;0.00;0.00;;;;;;;;;;1759377;28;20185;-72
2022/06/03 00:54:36;;;;;;;0.00;0.00;;;;;;;;;;1744662;28;20623;-72
2022/06/03 00:55:44;;;;;;;0.00;0.00;;;;;;;;;;1750763;28;20198;-72
2022/06/03 00:56:58;;;;;;;0.00;0.00;;;;;;;;;;1759524;28;20235;-72
2022/06/03 00:57:58;;;;;;;0.00;0.00;;;;;;;;;;1759198;28;20288;-72
2022/06/03 00:58:55;;;;;;;0.00;0.00;;;;;;;;;;1754355;28;20190;-72
2022/06/03 00:59:54;;;;;;;0.00;0.00;;;;;;;;;;1760171;28;20260;-71
2022/06/03 01:00:56;;;;;;;0.00;0.00;;;;;;;;;;1755853;28;20225;-71
2022/06/03 01:01:53;;;;;;;0.00;0.00;;;;;;;;;;1758408;28;20319;-72
2022/06/03 01:03:06;;;;;;;0.00;0.00;;;;;;;;;;1760618;28;20240;-72
2022/06/03 01:04:14;;;;;;;0.00;0.00;;;;;;;;;;1749171;28;20730;-72
2022/06/03 01:05:15;;;;;;;0.00;0.00;;;;;;;;;;1758427;28;20208;-72
2022/06/03 01:06:29;;;;;;;0.00;0.00;;;;;;;;;;1758872;28;20232;-72
2022/06/03 01:07:25;;;;;;;0.00;0.00;;;;;;;;;;1754736;28;20242;-72
2022/06/03 01:08:24;;;;;;;0.00;0.00;;;;;;;;;;1760902;28;20857;-72
2022/06/03 01:09:30;;;;;;;0.00;0.00;;;;;;;;;;1760943;28;20181;-72
2022/06/03 01:10:30;;;;;;;0.00;0.00;;;;;;;;;;1758590;28;20229;-73
2022/06/03 01:11:44;;;;;;;0.00;0.00;;;;;;;;;;1760704;27;20234;-72
2022/06/03 01:12:50;;;;;;;0.00;0.00;;;;;;;;;;1759948;28;20308;-73
2022/06/03 01:13:57;;;;;;;0.00;0.00;;;;;;;;;;1757885;28;20201;-72
2022/06/03 01:15:03;;;;;;;0.00;0.00;;;;;;;;;;1758744;27;20209;-73
2022/06/03 01:15:59;;;;;;;0.00;0.00;;;;;;;;;;1759038;28;21014;-72
2022/06/03 01:16:57;;;;;;;0.00;0.00;;;;;;;;;;1758908;28;20714;-73
2022/06/03 01:17:54;;;;;;;0.00;0.00;;;;;;;;;;1760955;27;20192;-72
2022/06/03 01:18:49;;;;;;;0.00;0.00;;;;;;;;;;1760616;28;20295;-72
2022/06/03 01:19:48;;;;;;;0.00;0.00;;;;;;;;;;1760103;28;20613;-72
2022/06/03 01:20:42;;;;;;;0.00;0.00;;;;;;;;;;1759605;28;20736;-73
2022/06/03 01:21:41;;;;;;;0.00;0.00;;;;;;;;;;1760378;28;20227;-73
2022/06/03 01:22:43;;;;;;;0.00;0.00;;;;;;;;;;1760034;28;20300;-72
2022/06/03 01:23:45;;;;;;;0.00;0.00;;;;;;;;;;1759429;28;20253;-72
2022/06/03 01:24:57;;;;;;;0.00;0.00;;;;;;;;;;1760759;28;20229;-72
2022/06/03 01:26:10;;;;;;;0.00;0.00;;;;;;;;;;1753443;28;20237;-73
2022/06/03 01:27:16;;;;;;;0.00;0.00;;;;;;;;;;1760271;28;20253;-72
2022/06/03 01:28:26;;;;;;;0.00;0.00;;;;;;;;;;1757065;28;20204;-72
2022/06/03 01:29:36;;;;;;;0.10;0.10;;;;;;;;;;1760008;28;20327;-72
2022/06/03 01:30:40;;;;;;;0.00;0.00;;;;;;;;;;1758654;28;20698;-72
2022/06/03 01:31:52;;;;;;;0.00;0.00;;;;;;;;;;1759219;28;20269;-72
2022/06/03 01:32:56;;;;;;;0.00;0.00;;;;;;;;;;1737365;28;20215;-72
2022/06/03 01:33:55;;;;;;;0.00;0.00;;;;;;;;;;1756114;28;20225;-72
2022/06/03 01:34:53;;;;;;;0.00;0.00;;;;;;;;;;1760327;28;20564;-72
2022/06/03 01:36:03;;;;;;;0.00;0.00;;;;;;;;;;1759657;28;20237;-72
2022/06/03 01:36:59;;;;;;;0.00;0.00;;;;;;;;;;1759200;28;20228;-72
2022/06/03 01:37:54;;;;;;;0.00;0.00;;;;;;;;;;1759804;28;20720;-72
2022/06/03 01:39:05;;;;;;;0.00;0.00;;;;;;;;;;1760849;28;20697;-72
2022/06/03 01:40:08;;;;;;;0.00;0.00;;;;;;;;;;1760537;28;20205;-72
2022/06/03 01:41:11;;;;;;;0.00;0.00;;;;;;;;;;1759237;28;20320;-72
2022/06/03 01:42:21;;;;;;;0.00;0.00;;;;;;;;;;1760704;28;20740;-72
2022/06/03 01:43:38;;;;;;;0.00;0.00;;;;;;;;;;1753864;28;20623;-72
2022/06/03 01:44:46;;;;;;;0.00;0.00;;;;;;;;;;1752605;28;20246;-72
2022/06/03 01:45:56;;;;;;;0.00;0.00;;;;;;;;;;1745733;28;20222;-72
2022/06/03 01:47:07;;;;;;;0.00;0.00;;;;;;;;;;1745825;28;20205;-72
2022/06/03 01:48:09;;;;;;;0.00;0.00;;;;;;;;;;1754304;28;20206;-72
2022/06/03 01:49:24;;;;;;;0.00;0.00;;;;;;;;;;1750687;28;20191;-73
2022/06/03 01:50:25;;;;;;;0.00;0.00;;;;;;;;;;1750247;28;20190;-72
2022/06/03 01:51:27;;;;;;;0.00;0.00;;;;;;;;;;1753551;28;20194;-72
2022/06/03 01:52:33;;;;;;;0.00;0.00;;;;;;;;;;1750799;28;20717;-72
2022/06/03 01:53:40;;;;;;;0.00;0.00;;;;;;;;;;1753932;28;20450;-72
2022/06/03 01:54:39;;;;;;;0.00;0.00;;;;;;;;;;1743463;28;20266;-72
2022/06/03 01:55:46;;;;;;;0.00;0.00;;;;;;;;;;1750585;28;20746;-72
2022/06/03 01:56:58;;;;;;;0.00;0.00;;;;;;;;;;1750708;28;20210;-73
2022/06/03 01:58:05;;;;;;;0.00;0.00;;;;;;;;;;1748451;28;20251;-73
2022/06/03 01:59:11;;;;;;;0.00;0.00;;;;;;;;;;1739336;28;20297;-72
2022/06/03 02:00:09;;;;;;;0.00;0.00;;;;;;;;;;1745534;28;20190;-72
2022/06/03 02:01:06;;;;;;;0.00;0.00;;;;;;;;;;1749963;28;20233;-72
2022/06/03 02:02:13;;;;;;;0.00;0.00;;;;;;;;;;1753781;28;20273;-72
2022/06/03 02:03:25;;;;;;;0.00;0.00;;;;;;;;;;1752788;28;20198;-72
2022/06/03 02:04:33;;;;;;;0.00;0.00;;;;;;;;;;1748812;28;20205;-72
2022/06/03 02:05:55;;;;;;;0.00;0.00;;;;;;;;;;1752262;28;20293;-72
2022/06/03 02:07:05;;;;;;;0.00;0.00;;;;;;;;;;1729520;28;20211;-72
2022/06/03 02:08:14;;;;;;;0.00;0.00;;;;;;;;;;1731722;28;20216;-72
2022/06/03 02:09:12;;;;;;;0.00;0.00;;;;;;;;;;1728038;28;20200;-72
2022/06/03 02:10:22;;;;;;;0.00;0.00;;;;;;;;;;1752503;28;20516;-72
2022/06/03 02:11:38;;;;;;;0.00;0.00;;;;;;;;;;1751828;28;20308;-72
2022/06/03 02:12:50;;;;;;;0.00;0.00;;;;;;;;;;1733119;28;20212;-72
2022/06/03 02:13:52;;;;;;;0.00;0.00;;;;;;;;;;1724734;28;20546;-72
2022/06/03 02:15:00;;;;;;;0.00;0.00;;;;;;;;;;1753510;28;20221;-71
2022/06/03 02:16:10;;;;;;;0.00;0.00;;;;;;;;;;1751624;28;20229;-71
2022/06/03 02:17:09;;;;;;;0.00;0.00;;;;;;;;;;1752559;28;20202;-72
2022/06/03 02:18:19;;;;;;;0.00;0.00;;;;;;;;;;1752364;28;20616;-72
2022/06/03 02:19:28;;;;;;;0.00;0.00;;;;;;;;;;1753169;28;20691;-72
2022/06/03 02:20:29;;;;;;;0.00;0.00;;;;;;;;;;1750991;28;20204;-72
2022/06/03 02:21:37;;;;;;;0.00;0.00;;;;;;;;;;1752491;28;20229;-72
2022/06/03 02:22:44;;;;;;;0.00;0.00;;;;;;;;;;1752704;28;20202;-72
2022/06/03 02:23:54;;;;;;;0.00;0.00;;;;;;;;;;1744664;28;20202;-72
2022/06/03 02:25:01;;;;;;;0.00;0.00;;;;;;;;;;1753240;28;20213;-72
2022/06/03 02:26:13;;;;;;;0.00;0.00;;;;;;;;;;1751825;28;20320;-72
2022/06/03 02:27:20;;;;;;;0.00;0.00;;;;;;;;;;1724575;28;20491;-72
2022/06/03 02:28:32;;;;;;;0.00;0.00;;;;;;;;;;1752575;28;20194;-72
2022/06/03 02:31:18;;;;;;;0.00;0.00;;;;;;;;;;1726061;28;20632;-72
2022/06/03 02:32:16;;;;;;;0.00;0.00;;;;;;;;;;1725097;28;20307;-72
2022/06/03 02:33:25;;;;;;;0.00;0.00;;;;;;;;;;1734224;28;20299;-72
2022/06/03 02:34:27;;;;;;;0.00;0.00;;;;;;;;;;1752506;28;20186;-72
2022/06/03 02:35:25;;;;;;;0.00;0.00;;;;;;;;;;1751951;28;20228;-72
2022/06/03 02:36:46;;;;;;;0.00;0.00;;;;;;;;;;1753421;28;20296;-72
2022/06/03 02:37:56;;;;;;;0.00;0.00;;;;;;;;;;1749078;28;20208;-72
2022/06/03 02:38:50;;;;;;;0.00;0.00;;;;;;;;;;1746843;28;20261;-72
2022/06/03 02:40:00;;;;;;;0.00;0.00;;;;;;;;;;1751884;28;20284;-72
2022/06/03 02:41:03;;;;;;;0.00;0.00;;;;;;;;;;1751281;28;20297;-72
2022/06/03 02:42:11;;;;;;;0.00;0.00;;;;;;;;;;1751561;28;20582;-72
2022/06/03 02:43:30;;;;;;;0.00;0.00;;;;;;;;;;1753222;28;20297;-72
2022/06/03 02:44:41;;;;;;;0.00;0.00;;;;;;;;;;1752381;28;20190;-72
2022/06/03 02:45:43;;;;;;;0.00;0.00;;;;;;;;;;1745542;28;20234;-72
2022/06/03 02:46:52;;;;;;;0.00;0.00;;;;;;;;;;1752357;28;20275;-72
2022/06/03 02:48:04;;;;;;;0.00;0.00;;;;;;;;;;1744788;28;20270;-72
2022/06/03 02:49:21;;;;;;;0.00;0.00;;;;;;;;;;1747877;28;20524;-72
2022/06/03 02:50:27;;;;;;;0.00;0.00;;;;;;;;;;1750942;28;20205;-72
2022/06/03 02:51:21;;;;;;;0.00;0.00;;;;;;;;;;1753028;28;20233;-72
2022/06/03 02:52:33;;;;;;;0.00;0.00;;;;;;;;;;1752724;28;20216;-72
2022/06/03 02:53:55;;;;;;;0.00;0.00;;;;;;;;;;1752792;28;20198;-72
2022/06/03 02:55:10;;;;;;;0.00;0.00;;;;;;;;;;1752804;28;20528;-72
2022/06/03 02:56:21;;;;;;;0.00;0.00;;;;;;;;;;1748356;28;20255;-72
2022/06/03 02:57:21;;;;;;;0.00;0.00;;;;;;;;;;1746730;28;20515;-72
2022/06/03 02:58:34;;;;;;;0.00;0.00;;;;;;;;;;1752865;28;20193;-72
2022/06/03 02:59:42;;;;;;;0.00;0.00;;;;;;;;;;1752127;28;20225;-72
2022/06/03 03:00:44;;;;;;;0.00;0.00;;;;;;;;;;1745113;28;20321;-72
2022/06/03 03:01:56;;;;;;;0.00;0.00;;;;;;;;;;1752431;28;20202;-72
2022/06/03 03:03:06;;;;;;;0.00;0.00;;;;;;;;;;1729821;28;20211;-72
2022/06/03 03:04:08;;;;;;;0.00;0.00;;;;;;;;;;1739835;28;20203;-72
2022/06/03 03:05:15;;;;;;;0.00;0.00;;;;;;;;;;1752714;28;20206;-72
2022/06/03 03:06:24;;;;;;;0.00;0.00;;;;;;;;;;1740842;28;20568;-72
2022/06/03 03:07:21;;;;;;;0.00;0.00;;;;;;;;;;1746623;28;20545;-72
2022/06/03 03:08:22;;;;;;;0.00;0.00;;;;;;;;;;1750035;28;20281;-72
2022/06/03 03:09:32;;;;;;;0.00;0.00;;;;;;;;;;1752961;28;20194;-72
2022/06/03 03:10:51;;;;;;;0.00;0.00;;;;;;;;;;1723273;28;20287;-72
2022/06/03 03:12:01;;;;;;;0.00;0.00;;;;;;;;;;1752334;28;20527;-72
2022/06/03 03:13:10;;;;;;;0.00;0.00;;;;;;;;;;1752749;28;20209;-72
2022/06/03 03:14:13;;;;;;;0.00;0.00;;;;;;;;;;1747220;28;20194;-72
2022/06/03 03:15:21;;;;;;;0.00;0.00;;;;;;;;;;1753222;28;20197;-72
2022/06/03 03:16:19;;;;;;;0.00;0.00;;;;;;;;;;1751621;28;20229;-72
2022/06/03 03:17:29;;;;;;;0.00;0.00;;;;;;;;;;1750976;28;20854;-72
2022/06/03 03:18:40;;;;;;;0.00;0.00;;;;;;;;;;1752152;28;20202;-72
2022/06/03 03:19:38;;;;;;;0.00;0.00;;;;;;;;;;1752585;28;20284;-71
2022/06/03 03:20:44;;;;;;;0.00;0.00;;;;;;;;;;1745169;28;20195;-71
2022/06/03 03:21:45;;;;;;;0.00;0.00;;;;;;;;;;1749501;28;20198;-72
2022/06/03 03:22:55;;;;;;;0.00;0.00;;;;;;;;;;1752601;28;20206;-72
2022/06/03 03:24:11;;;;;;;0.00;0.00;;;;;;;;;;1738779;28;20202;-72
2022/06/03 03:25:20;;;;;;;0.00;0.00;;;;;;;;;;1752703;28;20201;-72
2022/06/03 03:26:27;;;;;;;0.00;0.00;;;;;;;;;;1750818;28;20270;-72
2022/06/03 03:27:24;;;;;;;0.00;0.00;;;;;;;;;;1746178;28;20187;-72
2022/06/03 03:28:37;;;;;;;0.00;0.00;;;;;;;;;;1752401;28;20221;-72
2022/06/03 03:29:40;;;;;;;0.00;0.00;;;;;;;;;;1752616;28;20284;-72
2022/06/03 03:30:37;;;;;;;0.00;0.00;;;;;;;;;;1751521;28;20268;-72
2022/06/03 03:31:38;;;;;;;0.00;0.00;;;;;;;;;;1751846;28;20240;-72
2022/06/03 03:32:41;;;;;;;0.00;0.00;;;;;;;;;;1753069;28;20281;-72
2022/06/03 03:33:39;;;;;;;0.00;0.00;;;;;;;;;;1751198;28;21004;-72
2022/06/03 03:34:44;;;;;;;0.00;0.00;;;;;;;;;;1752775;28;20528;-71
2022/06/03 03:35:46;;;;;;;0.00;0.00;;;;;;;;;;1745075;28;20258;-71
2022/06/03 03:36:43;;;;;;;0.00;0.00;;;;;;;;;;1752307;28;20206;-71
2022/06/03 03:37:54;;;;;;;0.00;0.00;;;;;;;;;;1752359;28;20249;-71
2022/06/03 03:39:10;;;;;;;0.00;0.00;;;;;;;;;;1753269;28;20202;-71
2022/06/03 03:40:19;;;;;;;0.00;0.00;;;;;;;;;;1753017;28;20616;-71
2022/06/03 03:41:25;;;;;;;0.00;0.00;;;;;;;;;;1751701;28;20229;-71
2022/06/03 03:42:33;;;;;;;0.00;0.00;;;;;;;;;;1747078;28;20199;-72
2022/06/03 03:43:45;;;;;;;0.10;0.10;;;;;;;;;;1758922;28;20201;-72
2022/06/03 03:45:00;;;;;;;0.00;0.00;;;;;;;;;;1759343;28;20703;-72
2022/06/03 03:46:19;;;;;;;0.00;0.00;;;;;;;;;;1753336;28;20228;-72
2022/06/03 03:47:32;;;;;;;0.00;0.00;;;;;;;;;;1762838;27;20192;-72
2022/06/03 03:48:41;;;;;;;0.00;0.00;;;;;;;;;;1759561;28;20209;-72
2022/06/03 03:49:57;;;;;;;0.00;0.00;;;;;;;;;;1756772;28;20186;-72
2022/06/03 03:50:57;;;;;;;0.00;0.00;;;;;;;;;;1753258;28;20252;-72
2022/06/03 03:52:03;;;;;;;0.00;0.00;;;;;;;;;;1757140;28;20851;-72
2022/06/03 03:53:07;;;;;;;0.00;0.00;;;;;;;;;;1756752;27;20240;-72
2022/06/03 03:54:18;;;;;;;0.00;0.00;;;;;;;;;;1753499;28;20222;-72
2022/06/03 03:55:29;;;;;;;0.00;0.00;;;;;;;;;;1756792;28;20295;-71
2022/06/03 03:56:42;;;;;;;0.00;0.00;;;;;;;;;;1757961;28;20313;-71
2022/06/03 03:57:53;;;;;;;0.00;0.00;;;;;;;;;;1759604;28;20232;-72
2022/06/03 03:59:15;;;;;;;0.00;0.00;;;;;;;;;;1759852;28;20258;-72
2022/06/03 04:00:19;;;;;;;0.00;0.00;;;;;;;;;;1760015;28;20194;-72
2022/06/03 04:01:26;;;;;;;0.00;0.00;;;;;;;;;;1755651;28;20721;-72
2022/06/03 04:02:37;;;;;;;0.00;0.00;;;;;;;;;;1752824;28;20213;-72
2022/06/03 04:03:43;;;;;;;0.00;0.00;;;;;;;;;;1757733;28;20193;-72
2022/06/03 04:04:55;;;;;;;0.00;0.00;;;;;;;;;;1759445;28;20236;-72
2022/06/03 04:06:06;;;;;;;0.00;0.00;;;;;;;;;;1745900;28;20419;-71
2022/06/03 04:07:17;;;;;;;0.00;0.00;;;;;;;;;;1758458;28;20201;-72
2022/06/03 04:08:28;;;;;;;0.00;0.00;;;;;;;;;;1758555;28;20750;-72
2022/06/03 04:09:26;;;;;;;0.00;0.00;;;;;;;;;;1758794;28;20571;-72
2022/06/03 04:10:42;;;;;;;0.00;0.00;;;;;;;;;;1758479;28;20246;-73
2022/06/03 04:11:52;;;;;;;0.00;0.00;;;;;;;;;;1758797;28;20299;-72
2022/06/03 04:13:08;;;;;;;0.00;0.00;;;;;;;;;;1759944;27;20197;-72
2022/06/03 04:14:17;;;;;;;0.00;0.00;;;;;;;;;;1752734;28;20609;-72
2022/06/03 04:15:29;;;;;;;0.00;0.00;;;;;;;;;;1757535;28;20189;-72
2022/06/03 04:16:38;;;;;;;0.00;0.00;;;;;;;;;;1729066;28;20235;-72
2022/06/03 04:17:49;;;;;;;0.00;0.00;;;;;;;;;;1739489;28;20201;-72
2022/06/03 04:19:11;;;;;;;0.00;0.00;;;;;;;;;;1760091;28;20563;-72
2022/06/03 04:20:15;;;;;;;0.00;0.00;;;;;;;;;;1734029;28;20524;-72
2022/06/03 04:21:28;;;;;;;0.00;0.00;;;;;;;;;;1729316;28;20273;-72
2022/06/03 04:22:37;;;;;;;0.00;0.00;;;;;;;;;;1728608;28;20713;-72
2022/06/03 04:23:48;;;;;;;0.00;0.00;;;;;;;;;;1756723;28;20672;-72
2022/06/03 04:25:03;;;;;;;0.00;0.00;;;;;;;;;;1759219;28;20283;-72
2022/06/03 04:26:13;;;;;;;0.00;0.00;;;;;;;;;;1757988;28;20240;-72
2022/06/03 04:27:23;;;;;;;0.00;0.00;;;;;;;;;;1758491;28;20272;-72
2022/06/03 04:28:35;;;;;;;0.00;0.00;;;;;;;;;;1759294;28;20221;-72
2022/06/03 04:29:44;;;;;;;0.00;0.00;;;;;;;;;;1759485;28;20202;-72
2022/06/03 04:31:09;;;;;;;0.00;0.00;;;;;;;;;;1751588;28;20229;-72
2022/06/03 04:32:19;;;;;;;0.00;0.00;;;;;;;;;;1758658;28;20200;-72
2022/06/03 04:33:26;;;;;;;0.00;0.00;;;;;;;;;;1757782;28;20270;-72
2022/06/03 04:34:42;;;;;;;0.00;0.00;;;;;;;;;;1758908;28;20205;-72
2022/06/03 04:35:50;;;;;;;0.00;0.00;;;;;;;;;;1751874;28;21761;-72
2022/06/03 04:37:16;;;;;;;0.00;0.00;;;;;;;;;;1758899;28;20300;-72
2022/06/03 04:38:26;;;;;;;0.00;0.00;;;;;;;;;;1758810;28;20261;-72
2022/06/03 04:39:29;;;;;;;0.00;0.00;;;;;;;;;;1758270;28;20447;-72
2022/06/03 04:40:41;;;;;;;0.00;0.00;;;;;;;;;;1758305;28;20447;-72
2022/06/03 04:41:52;;;;;;;0.00;0.00;;;;;;;;;;1759048;28;20304;-72
2022/06/03 04:42:58;;;;;;;0.00;0.00;;;;;;;;;;1758881;28;20269;-72
2022/06/03 04:44:08;;;;;;;0.00;0.00;;;;;;;;;;1752847;28;20190;-72
2022/06/03 04:45:14;;;;;;;0.00;0.00;;;;;;;;;;1737539;28;20309;-72
2022/06/03 04:46:44;;;;;;;0.00;0.00;;;;;;;;;;1751943;28;21084;-72
2022/06/03 04:47:52;;;;;;;0.00;0.00;;;;;;;;;;1754498;28;20330;-72
2022/06/03 04:49:13;;;;;;;0.00;0.00;;;;;;;;;;1756421;28;20540;-73
2022/06/03 04:50:25;;;;;;;0.00;0.00;;;;;;;;;;1759484;28;20201;-73
2022/06/03 04:51:34;;;;;;;0.00;0.00;;;;;;;;;;1748415;28;20221;-72
2022/06/03 04:52:51;;;;;;;0.00;0.00;;;;;;;;;;1756664;28;20622;-72
2022/06/03 04:54:02;;;;;;;0.00;0.00;;;;;;;;;;1759756;28;20288;-72
2022/06/03 04:55:12;;;;;;;0.00;0.00;;;;;;;;;;1758796;28;20292;-72
2022/06/03 04:56:27;;;;;;;0.00;0.00;;;;;;;;;;1754858;28;20267;-72
2022/06/03 04:57:37;;;;;;;0.00;0.00;;;;;;;;;;1753100;28;20296;-72
2022/06/03 04:58:50;;;;;;;0.00;0.00;;;;;;;;;;1756804;28;20473;-72
2022/06/03 04:59:57;;;;;;;0.00;0.00;;;;;;;;;;1759518;28;20216;-72
2022/06/03 05:01:04;;;;;;;0.00;0.00;;;;;;;;;;1754864;28;20509;-72
2022/06/03 05:02:19;;;;;;;0.00;0.00;;;;;;;;;;1758022;28;20292;-72
2022/06/03 05:03:35;;;;;;;0.00;0.00;;;;;;;;;;1736840;28;20575;-72
2022/06/03 05:04:44;;;;;;;0.00;0.00;;;;;;;;;;1726541;28;20196;-72
2022/06/03 05:05:51;;;;;;;0.00;0.00;;;;;;;;;;1728718;28;20624;-73
2022/06/03 05:07:01;;;;;;;0.00;0.00;;;;;;;;;;1737354;28;20284;-72
2022/06/03 05:08:17;;;;;;;0.00;0.00;;;;;;;;;;1736524;28;20534;-72
2022/06/03 05:09:27;;;;;;;0.00;0.00;;;;;;;;;;1731517;28;20314;-72
2022/06/03 05:10:37;;;;;;;0.00;0.00;;;;;;;;;;1734447;28;20238;-72
2022/06/03 05:12:02;;;;;;;0.00;0.00;;;;;;;;;;1735834;28;20291;-72
2022/06/03 05:13:14;;;;;;;0.00;0.00;;;;;;;;;;1736571;28;20199;-72
2022/06/03 05:14:24;;;;;;;0.00;0.00;;;;;;;;;;1717394;28;20304;-72
2022/06/03 05:15:40;;;;;;;0.00;0.00;;;;;;;;;;1735229;28;20184;-73
2022/06/03 05:17:04;;;;;;;0.00;0.00;;;;;;;;;;1735944;28;20195;-72
2022/06/03 05:18:21;;;;;;;0.00;0.00;;;;;;;;;;1734616;28;20636;-73
2022/06/03 05:19:27;;;;;;;0.00;0.00;;;;;;;;;;1731789;28;20790;-72
2022/06/03 05:20:26;;;;;;;0.00;0.00;;;;;;;;;;1735058;28;20199;-72
2022/06/03 05:21:41;;;;;;;0.00;0.00;;;;;;;;;;1736642;28;20261;-73
2022/06/03 05:22:54;;;;;;;0.00;0.00;;;;;;;;;;1720037;28;20645;-72
2022/06/03 05:23:53;;;;;;;0.00;0.00;;;;;;;;;;1724534;28;20238;-72
2022/06/03 05:25:04;;;;;;;0.00;0.00;;;;;;;;;;1735608;28;20206;-72
2022/06/03 05:26:14;;;;;;;0.00;0.00;;;;;;;;;;1735073;28;20581;-72
2022/06/03 05:27:15;;;;;;;0.00;0.00;;;;;;;;;;1723493;28;20842;-73
2022/06/03 05:28:18;;;;;;;0.00;0.00;;;;;;;;;;1733802;28;20229;-73
2022/06/03 05:29:33;;;;;;;0.00;0.00;;;;;;;;;;1735950;28;20283;-73
2022/06/03 05:30:34;;;;;;;0.00;0.00;;;;;;;;;;1714416;28;20650;-73
2022/06/03 05:31:56;;;;;;;0.00;0.00;;;;;;;;;;1716533;28;20193;-73
2022/06/03 05:33:10;;;;;;;0.00;0.00;;;;;;;;;;1736392;28;20223;-73
2022/06/03 05:34:16;;;;;;;0.00;0.00;;;;;;;;;;1731571;28;20227;-72
2022/06/03 05:35:20;;;;;;;0.00;0.00;;;;;;;;;;1734406;28;20210;-72
2022/06/03 05:36:30;;;;;;;0.00;0.00;;;;;;;;;;1734724;28;20238;-72
2022/06/03 05:37:34;;;;;;;0.00;0.00;;;;;;;;;;1731230;28;20224;-72
2022/06/03 05:38:43;;;;;;;0.00;0.00;;;;;;;;;;1737707;28;20203;-72
2022/06/03 05:39:46;;;;;;;0.00;0.00;;;;;;;;;;1736583;28;20286;-72
2022/06/03 05:40:43;;;;;;;0.00;0.00;;;;;;;;;;1738200;28;20230;-72
2022/06/03 05:43:16;;;;;;;0.00;0.00;;;;;;;;;;1758515;28;20645;-73
2022/06/03 05:44:12;;;;;;;0.00;0.00;;;;;;;;;;1753692;28;20258;-72
2022/06/03 05:45:15;;;;;;;0.00;0.00;;;;;;;;;;1760495;28;20193;-72
2022/06/03 05:46:10;;;;;;;0.00;0.00;;;;;;;;;;1758499;27;20232;-72
2022/06/03 05:47:04;;;;;;;0.00;0.00;;;;;;;;;;1763383;27;20293;-72
2022/06/03 05:47:59;;;;;;;0.00;0.00;;;;;;;;;;1760742;27;20198;-72
2022/06/03 05:49:02;;;;;;;0.00;0.00;;;;;;;;;;1756339;28;20263;-72
2022/06/03 05:49:58;;;;;;;0.00;0.00;;;;;;;;;;1760662;28;20188;-72
2022/06/03 05:50:52;;;;;;;0.00;0.00;;;;;;;;;;1759229;27;20280;-72
2022/06/03 05:51:49;;;;;;;0.00;0.00;;;;;;;;;;1760086;28;20289;-72
2022/06/03 05:52:48;;;;;;;0.00;0.00;;;;;;;;;;1760435;28;20300;-72
2022/06/03 05:53:44;;;;;;;0.00;0.00;;;;;;;;;;1760069;28;20211;-72
2022/06/03 05:54:41;;;;;;;0.00;0.00;;;;;;;;;;1760478;28;20641;-72
2022/06/03 05:55:37;;;;;;;0.00;0.00;;;;;;;;;;1752689;28;20233;-72
2022/06/03 05:56:43;;;;;;;0.00;0.00;;;;;;;;;;1760434;28;20633;-72
2022/06/03 05:57:39;;;;;;;0.00;0.00;;;;;;;;;;1759822;28;20204;-72
2022/06/03 05:58:40;;;;;;;0.00;0.00;;;;;;;;;;1758358;28;20205;-72
2022/06/03 05:59:47;;;;;;;0.00;0.00;;;;;;;;;;1759388;28;20215;-72
2022/06/03 06:00:49;;;;;;;0.00;0.00;;;;;;;;;;1756711;28;20232;-72
2022/06/03 06:01:48;;;;;;;0.00;0.00;;;;;;;;;;1760264;28;20258;-73
2022/06/03 06:02:41;;;;;;;0.00;0.00;;;;;;;;;;1760441;28;20201;-73
2022/06/03 06:03:41;;;;;;;0.00;0.00;;;;;;;;;;1760773;28;20634;-73
2022/06/03 06:04:38;;;;;;;0.00;0.00;;;;;;;;;;1759592;27;20255;-73
2022/06/03 06:05:35;;;;;;;0.00;0.00;;;;;;;;;;1752236;28;20277;-73
2022/06/03 06:06:31;;;;;;;0.00;0.00;;;;;;;;;;1758558;27;20201;-73
2022/06/03 06:07:28;;;;;;;0.00;0.00;;;;;;;;;;1760584;28;20707;-73
2022/06/03 06:08:26;;;;;;;0.00;0.00;;;;;;;;;;1760384;28;20205;-73
2022/06/03 06:09:36;;;;;;;0.00;0.00;;;;;;;;;;1759962;28;20179;-73
2022/06/03 06:10:40;;;;;;;0.00;0.00;;;;;;;;;;1758437;28;20258;-73
2022/06/03 06:11:40;;;;;;;0.00;0.00;;;;;;;;;;1759259;27;20193;-73
2022/06/03 06:12:45;;;;;;;0.00;0.00;;;;;;;;;;1759051;28;20241;-73
2022/06/03 06:13:43;;;;;;;0.00;0.00;;;;;;;;;;1759189;28;20212;-73
2022/06/03 06:14:42;;;;;;;0.00;0.00;;;;;;;;;;1759716;28;20331;-73
2022/06/03 06:15:49;;;;;;;0.00;0.00;;;;;;;;;;1752598;28;20320;-73
2022/06/03 06:16:42;;;;;;;0.00;0.00;;;;;;;;;;1760634;28;20655;-73
2022/06/03 06:17:42;;;;;;;0.00;0.00;;;;;;;;;;1759714;28;20215;-73
2022/06/03 06:18:40;;;;;;;0.00;0.00;;;;;;;;;;1757746;28;20201;-73
2022/06/03 06:19:37;;;;;;;0.00;0.00;;;;;;;;;;1760200;28;20193;-73
2022/06/03 06:20:40;;;;;;;0.00;0.00;;;;;;;;;;1751779;28;20189;-73
2022/06/03 06:21:40;;;;;;;0.00;0.00;;;;;;;;;;1759895;28;20202;-73
2022/06/03 06:22:34;;;;;;;0.00;0.00;;;;;;;;;;1760177;28;20205;-73
2022/06/03 06:23:36;;;;;;;0.00;0.00;;;;;;;;;;1761067;28;20254;-74
2022/06/03 06:24:45;;;;;;;0.00;0.00;;;;;;;;;;1759635;28;20193;-74
2022/06/03 06:25:38;;;;;;;0.00;0.00;;;;;;;;;;1752181;28;20245;-73
2022/06/03 06:26:54;;;;;;;0.00;0.00;;;;;;;;;;1759850;28;20185;-73
2022/06/03 06:27:54;;;;;;;0.00;0.00;;;;;;;;;;1743138;28;20297;-73
2022/06/03 06:29:01;;;;;;;0.00;0.00;;;;;;;;;;1760660;28;20617;-73
2022/06/03 06:30:06;;;;;;;0.00;0.00;;;;;;;;;;1760439;28;20667;-73
2022/06/03 06:31:10;;;;;;;0.00;0.00;;;;;;;;;;1757939;28;20232;-72
2022/06/03 06:32:18;;;;;;;0.10;0.10;;;;;;;;;;1759376;28;20205;-72
2022/06/03 06:33:16;;;;;;;0.00;0.00;;;;;;;;;;1757127;28;20194;-72
2022/06/03 06:34:24;;;;;;;0.00;0.00;;;;;;;;;;1760522;28;20648;-72
2022/06/03 06:35:34;;;;;;;0.00;0.00;;;;;;;;;;1757710;28;20284;-72
2022/06/03 06:36:45;;;;;;;0.00;0.00;;;;;;;;;;1760143;27;20695;-72
2022/06/03 06:37:55;;;;;;;0.00;0.00;;;;;;;;;;1758196;27;20229;-72
2022/06/03 06:38:55;;;;;;;0.00;0.00;;;;;;;;;;1760251;28;20542;-72